sensor_id;sensor_type;location;lat;lon;timestamp;P1;durP1;ratioP1;P2;durP2;ratioP2
4078;SDS011;2054;47.858;11.156;2023-01-24T03:45:24;6.68;;;3.40;;
4078;SDS011;2054;47.858;11.156;2023-01-24T03:47:52;8.27;;;3.92;;
4078;SDS011;2054;47.858;11.156;2023-01-24T03:50:24;8.73;;;4.40;;
4078;SDS011;2054;47.858;11.156;2023-01-24T03:53:09;8.90;;;4.78;;
4078;SDS011;2054;47.858;11.156;2023-01-24T03:55:36;6.03;;;3.80;;
4078;SDS011;2054;47.858;11.156;2023-01-24T03:58:04;7.72;;;4.00;;
4078;SDS011;2054;47.858;11.156;2023-01-24T04:00:33;7.82;;;3.97;;
4078;SDS011;2054;47.858;11.156;2023-01-24T04:03:00;7.00;;;4.18;;
4078;SDS011;2054;47.858;11.156;2023-01-24T04:05:27;8.95;;;4.18;;
4078;SDS011;2054;47.858;11.156;2023-01-24T04:07:55;4.50;;;3.25;;
4078;SDS011;2054;47.858;11.156;2023-01-24T04:10:22;7.57;;;3.97;;
4078;SDS011;2054;47.858;11.156;2023-01-24T04:12:50;6.20;;;3.42;;
4078;SDS011;2054;47.858;11.156;2023-01-24T04:15:18;7.65;;;4.28;;
4078;SDS011;2054;47.858;11.156;2023-01-24T04:17:47;7.38;;;4.40;;
4078;SDS011;2054;47.858;11.156;2023-01-24T04:20:14;5.63;;;3.47;;
4078;SDS011;2054;47.858;11.156;2023-01-24T04:22:42;5.85;;;3.80;;
4078;SDS011;2054;47.858;11.156;2023-01-24T04:25:09;5.28;;;3.50;;
4078;SDS011;2054;47.858;11.156;2023-01-24T04:27:36;8.07;;;4.18;;
4078;SDS011;2054;47.858;11.156;2023-01-24T04:30:04;7.00;;;3.70;;
4078;SDS011;2054;47.858;11.156;2023-01-24T04:32:32;5.50;;;3.45;;
4078;SDS011;2054;47.858;11.156;2023-01-24T04:35:00;7.97;;;3.95;;
4078;SDS011;2054;47.858;11.156;2023-01-24T04:37:28;6.65;;;3.83;;
4078;SDS011;2054;47.858;11.156;2023-01-24T04:39:55;6.65;;;3.92;;
4078;SDS011;2054;47.858;11.156;2023-01-24T04:42:22;7.15;;;4.03;;
4078;SDS011;2054;47.858;11.156;2023-01-24T04:44:49;9.05;;;4.53;;
4078;SDS011;2054;47.858;11.156;2023-01-24T04:47:16;7.90;;;4.75;;
4078;SDS011;2054;47.858;11.156;2023-01-24T04:49:44;9.27;;;4.50;;
4078;SDS011;2054;47.858;11.156;2023-01-24T04:52:13;8.40;;;4.03;;
4078;SDS011;2054;47.858;11.156;2023-01-24T04:54:40;8.80;;;4.53;;
4078;SDS011;2054;47.858;11.156;2023-01-24T04:57:07;8.40;;;4.70;;
4078;SDS011;2054;47.858;11.156;2023-01-24T04:59:34;8.30;;;4.78;;
4078;SDS011;2054;47.858;11.156;2023-01-24T05:02:01;8.93;;;4.82;;
4078;SDS011;2054;47.858;11.156;2023-01-24T05:04:29;7.65;;;4.32;;
4078;SDS011;2054;47.858;11.156;2023-01-24T05:06:56;9.45;;;4.53;;
4078;SDS011;2054;47.858;11.156;2023-01-24T05:09:25;8.95;;;4.80;;
4078;SDS011;2054;47.858;11.156;2023-01-24T05:11:52;7.68;;;4.93;;
4078;SDS011;2054;47.858;11.156;2023-01-24T05:14:19;8.73;;;4.80;;
4078;SDS011;2054;47.858;11.156;2023-01-24T05:16:46;8.10;;;4.45;;
4078;SDS011;2054;47.858;11.156;2023-01-24T05:19:13;9.32;;;4.63;;
4078;SDS011;2054;47.858;11.156;2023-01-24T05:21:41;9.20;;;4.65;;
4078;SDS011;2054;47.858;11.156;2023-01-24T05:24:08;8.43;;;4.53;;
4078;SDS011;2054;47.858;11.156;2023-01-24T05:26:36;10.35;;;4.70;;
4078;SDS011;2054;47.858;11.156;2023-01-24T05:29:04;9.02;;;4.80;;
4078;SDS011;2054;47.858;11.156;2023-01-24T05:31:31;8.57;;;4.40;;
4078;SDS011;2054;47.858;11.156;2023-01-24T05:33:58;7.35;;;4.47;;
4078;SDS011;2054;47.858;11.156;2023-01-24T05:36:25;10.98;;;4.93;;
4078;SDS011;2054;47.858;11.156;2023-01-24T05:38:52;9.82;;;4.93;;
4078;SDS011;2054;47.858;11.156;2023-01-24T05:41:20;8.98;;;4.85;;
4078;SDS011;2054;47.858;11.156;2023-01-24T05:43:48;11.20;;;5.15;;
4078;SDS011;2054;47.858;11.156;2023-01-24T05:46:16;8.95;;;5.00;;
4078;SDS011;2054;47.858;11.156;2023-01-24T05:48:44;8.75;;;4.88;;
4078;SDS011;2054;47.858;11.156;2023-01-24T05:51:12;11.38;;;4.95;;
4078;SDS011;2054;47.858;11.156;2023-01-24T05:53:40;9.95;;;4.70;;
4078;SDS011;2054;47.858;11.156;2023-01-24T05:56:09;12.73;;;4.95;;
4078;SDS011;2054;47.858;11.156;2023-01-24T05:58:37;12.50;;;5.40;;
4078;SDS011;2054;47.858;11.156;2023-01-24T06:01:09;11.55;;;5.40;;
4078;SDS011;2054;47.858;11.156;2023-01-24T06:03:38;13.73;;;5.22;;
4078;SDS011;2054;47.858;11.156;2023-01-24T06:06:06;9.77;;;5.20;;
4078;SDS011;2054;47.858;11.156;2023-01-24T06:08:35;10.23;;;5.07;;
4078;SDS011;2054;47.858;11.156;2023-01-24T06:11:03;8.57;;;4.30;;
4078;SDS011;2054;47.858;11.156;2023-01-24T06:13:31;11.45;;;5.15;;
4078;SDS011;2054;47.858;11.156;2023-01-24T06:16:02;11.65;;;5.18;;
4078;SDS011;2054;47.858;11.156;2023-01-24T06:18:31;9.20;;;4.88;;
4078;SDS011;2054;47.858;11.156;2023-01-24T06:20:58;13.05;;;5.65;;
4078;SDS011;2054;47.858;11.156;2023-01-24T06:23:30;12.40;;;5.63;;
4078;SDS011;2054;47.858;11.156;2023-01-24T06:25:57;10.95;;;5.47;;
4078;SDS011;2054;47.858;11.156;2023-01-24T06:28:25;11.75;;;5.95;;
4078;SDS011;2054;47.858;11.156;2023-01-24T06:30:55;13.95;;;5.97;;
4078;SDS011;2054;47.858;11.156;2023-01-24T06:33:31;14.95;;;5.68;;
4078;SDS011;2054;47.858;11.156;2023-01-24T06:38:42;18.45;;;9.40;;
4078;SDS011;2054;47.858;11.156;2023-01-24T06:41:13;16.77;;;8.02;;
4078;SDS011;2054;47.858;11.156;2023-01-24T06:43:41;18.70;;;9.18;;
4078;SDS011;2054;47.858;11.156;2023-01-24T06:46:08;18.80;;;9.80;;
4078;SDS011;2054;47.858;11.156;2023-01-24T06:48:37;21.15;;;9.85;;
4078;SDS011;2054;47.858;11.156;2023-01-24T06:51:04;19.88;;;9.70;;
4078;SDS011;2054;47.858;11.156;2023-01-24T06:53:31;18.27;;;10.05;;
4078;SDS011;2054;47.858;11.156;2023-01-24T06:55:59;19.85;;;9.07;;
4078;SDS011;2054;47.858;11.156;2023-01-24T06:58:26;23.60;;;10.40;;
4078;SDS011;2054;47.858;11.156;2023-01-24T07:00:53;19.63;;;9.55;;
4078;SDS011;2054;47.858;11.156;2023-01-24T07:03:21;16.13;;;6.80;;
4078;SDS011;2054;47.858;11.156;2023-01-24T07:05:49;20.20;;;9.18;;
4078;SDS011;2054;47.858;11.156;2023-01-24T07:08:16;24.73;;;10.95;;
4078;SDS011;2054;47.858;11.156;2023-01-24T07:10:46;26.63;;;11.10;;
4078;SDS011;2054;47.858;11.156;2023-01-24T07:13:13;26.77;;;11.43;;
4078;SDS011;2054;47.858;11.156;2023-01-24T07:15:40;22.80;;;11.18;;
4078;SDS011;2054;47.858;11.156;2023-01-24T07:18:07;20.98;;;10.75;;
4078;SDS011;2054;47.858;11.156;2023-01-24T07:20:35;17.50;;;9.23;;
4078;SDS011;2054;47.858;11.156;2023-01-24T07:23:04;21.20;;;10.15;;
4078;SDS011;2054;47.858;11.156;2023-01-24T07:25:31;24.52;;;11.07;;
4078;SDS011;2054;47.858;11.156;2023-01-24T07:28:02;24.58;;;10.20;;
4078;SDS011;2054;47.858;11.156;2023-01-24T07:30:30;28.05;;;11.73;;
4078;SDS011;2054;47.858;11.156;2023-01-24T07:32:57;26.80;;;12.05;;
4078;SDS011;2054;47.858;11.156;2023-01-24T07:35:24;25.67;;;11.25;;
4078;SDS011;2054;47.858;11.156;2023-01-24T07:37:51;22.35;;;11.70;;
4078;SDS011;2054;47.858;11.156;2023-01-24T07:40:20;24.02;;;11.20;;
4078;SDS011;2054;47.858;11.156;2023-01-24T07:42:47;23.90;;;11.18;;
4078;SDS011;2054;47.858;11.156;2023-01-24T07:45:14;24.65;;;10.93;;
4078;SDS011;2054;47.858;11.156;2023-01-24T07:47:41;27.52;;;11.82;;
4078;SDS011;2054;47.858;11.156;2023-01-24T07:50:09;27.35;;;11.98;;
4078;SDS011;2054;47.858;11.156;2023-01-24T07:52:36;29.00;;;11.18;;
4078;SDS011;2054;47.858;11.156;2023-01-24T07:55:04;26.85;;;11.82;;
4078;SDS011;2054;47.858;11.156;2023-01-24T07:57:32;26.10;;;12.07;;
4078;SDS011;2054;47.858;11.156;2023-01-24T08:00:00;22.27;;;11.15;;
4078;SDS011;2054;47.858;11.156;2023-01-24T08:02:27;24.70;;;10.85;;
4078;SDS011;2054;47.858;11.156;2023-01-24T08:04:54;22.27;;;11.05;;
4078;SDS011;2054;47.858;11.156;2023-01-24T08:07:21;20.67;;;10.32;;
4078;SDS011;2054;47.858;11.156;2023-01-24T08:09:48;21.80;;;10.60;;
4078;SDS011;2054;47.858;11.156;2023-01-24T08:12:15;20.10;;;10.38;;
4078;SDS011;2054;47.858;11.156;2023-01-24T08:14:44;19.63;;;9.85;;
4078;SDS011;2054;47.858;11.156;2023-01-24T08:17:11;20.00;;;9.55;;
4078;SDS011;2054;47.858;11.156;2023-01-24T08:19:38;23.77;;;10.43;;
4078;SDS011;2054;47.858;11.156;2023-01-24T08:22:06;26.38;;;11.23;;
4078;SDS011;2054;47.858;11.156;2023-01-24T08:24:33;27.88;;;11.63;;
4078;SDS011;2054;47.858;11.156;2023-01-24T08:27:01;32.40;;;13.63;;
4078;SDS011;2054;47.858;11.156;2023-01-24T08:29:28;29.00;;;12.63;;
4078;SDS011;2054;47.858;11.156;2023-01-24T08:31:57;22.45;;;11.18;;
4078;SDS011;2054;47.858;11.156;2023-01-24T08:34:24;23.67;;;11.48;;
4078;SDS011;2054;47.858;11.156;2023-01-24T08:36:52;27.85;;;12.43;;
4078;SDS011;2054;47.858;11.156;2023-01-24T08:39:19;41.40;;;14.95;;
4078;SDS011;2054;47.858;11.156;2023-01-24T08:41:46;29.60;;;12.60;;
4078;SDS011;2054;47.858;11.156;2023-01-24T08:44:13;32.53;;;12.68;;
4078;SDS011;2054;47.858;11.156;2023-01-24T08:46:40;23.85;;;10.90;;
4078;SDS011;2054;47.858;11.156;2023-01-24T08:49:10;22.92;;;10.55;;
4078;SDS011;2054;47.858;11.156;2023-01-24T08:51:37;20.08;;;9.98;;
4078;SDS011;2054;47.858;11.156;2023-01-24T08:54:05;23.00;;;10.05;;
4078;SDS011;2054;47.858;11.156;2023-01-24T08:56:33;22.05;;;10.75;;
4078;SDS011;2054;47.858;11.156;2023-01-24T08:59:00;21.65;;;10.68;;
4078;SDS011;2054;47.858;11.156;2023-01-24T09:01:27;22.80;;;9.68;;
4078;SDS011;2054;47.858;11.156;2023-01-24T09:03:57;23.27;;;10.38;;
4078;SDS011;2054;47.858;11.156;2023-01-24T09:06:25;21.40;;;10.43;;
4078;SDS011;2054;47.858;11.156;2023-01-24T09:08:53;25.35;;;10.85;;
4078;SDS011;2054;47.858;11.156;2023-01-24T09:11:21;23.52;;;10.02;;
4078;SDS011;2054;47.858;11.156;2023-01-24T09:13:48;24.60;;;10.25;;
4078;SDS011;2054;47.858;11.156;2023-01-24T09:16:15;90.10;;;39.63;;
4078;SDS011;2054;47.858;11.156;2023-01-24T09:18:43;26.58;;;12.55;;
4078;SDS011;2054;47.858;11.156;2023-01-24T09:21:10;32.92;;;12.05;;
4078;SDS011;2054;47.858;11.156;2023-01-24T09:23:38;24.10;;;11.50;;
4078;SDS011;2054;47.858;11.156;2023-01-24T09:26:05;24.58;;;11.10;;
4078;SDS011;2054;47.858;11.156;2023-01-24T09:28:33;25.92;;;12.30;;
4078;SDS011;2054;47.858;11.156;2023-01-24T09:31:00;26.55;;;11.10;;
4078;SDS011;2054;47.858;11.156;2023-01-24T09:33:27;25.77;;;12.27;;
4078;SDS011;2054;47.858;11.156;2023-01-24T09:35:55;26.50;;;11.18;;
4078;SDS011;2054;47.858;11.156;2023-01-24T09:38:23;29.80;;;11.93;;
4078;SDS011;2054;47.858;11.156;2023-01-24T09:40:54;23.42;;;10.98;;
4078;SDS011;2054;47.858;11.156;2023-01-24T09:46:16;26.20;;;12.05;;
4078;SDS011;2054;47.858;11.156;2023-01-24T09:48:44;23.77;;;11.40;;
4078;SDS011;2054;47.858;11.156;2023-01-24T09:51:13;26.45;;;11.60;;
4078;SDS011;2054;47.858;11.156;2023-01-24T09:53:43;24.90;;;11.60;;
4078;SDS011;2054;47.858;11.156;2023-01-24T09:56:14;25.48;;;10.88;;
4078;SDS011;2054;47.858;11.156;2023-01-24T09:58:53;25.75;;;11.55;;
4078;SDS011;2054;47.858;11.156;2023-01-24T10:01:22;25.55;;;11.55;;
4078;SDS011;2054;47.858;11.156;2023-01-24T10:03:49;24.17;;;11.02;;
4078;SDS011;2054;47.858;11.156;2023-01-24T10:06:19;22.92;;;9.95;;
4078;SDS011;2054;47.858;11.156;2023-01-24T10:08:49;20.48;;;9.98;;
4078;SDS011;2054;47.858;11.156;2023-01-24T10:11:24;19.25;;;9.95;;
4078;SDS011;2054;47.858;11.156;2023-01-24T10:14:08;21.45;;;9.52;;
4078;SDS011;2054;47.858;11.156;2023-01-24T10:16:44;23.17;;;10.30;;
4078;SDS011;2054;47.858;11.156;2023-01-24T10:19:17;27.25;;;11.40;;
4078;SDS011;2054;47.858;11.156;2023-01-24T10:21:55;22.70;;;10.57;;
4078;SDS011;2054;47.858;11.156;2023-01-24T10:24:28;25.48;;;10.85;;
4078;SDS011;2054;47.858;11.156;2023-01-24T10:26:59;25.20;;;9.45;;
4078;SDS011;2054;47.858;11.156;2023-01-24T10:29:27;21.15;;;9.35;;
4078;SDS011;2054;47.858;11.156;2023-01-24T10:31:56;18.02;;;9.05;;
4078;SDS011;2054;47.858;11.156;2023-01-24T10:34:26;18.50;;;8.98;;
4078;SDS011;2054;47.858;11.156;2023-01-24T10:36:57;17.75;;;8.68;;
4078;SDS011;2054;47.858;11.156;2023-01-24T10:39:25;23.52;;;9.68;;
4078;SDS011;2054;47.858;11.156;2023-01-24T10:41:52;20.77;;;9.43;;
4078;SDS011;2054;47.858;11.156;2023-01-24T10:44:23;19.70;;;9.35;;
4078;SDS011;2054;47.858;11.156;2023-01-24T10:46:57;20.60;;;10.10;;
4078;SDS011;2054;47.858;11.156;2023-01-24T10:49:28;26.98;;;10.60;;
4078;SDS011;2054;47.858;11.156;2023-01-24T10:52:12;22.65;;;10.27;;
4078;SDS011;2054;47.858;11.156;2023-01-24T10:54:43;25.00;;;10.23;;
4078;SDS011;2054;47.858;11.156;2023-01-24T10:57:16;26.77;;;11.00;;
4078;SDS011;2054;47.858;11.156;2023-01-24T10:59:46;22.50;;;10.70;;
4078;SDS011;2054;47.858;11.156;2023-01-24T11:02:18;24.52;;;9.55;;
4078;SDS011;2054;47.858;11.156;2023-01-24T11:04:46;24.67;;;11.00;;
4078;SDS011;2054;47.858;11.156;2023-01-24T11:07:23;20.23;;;9.95;;
4078;SDS011;2054;47.858;11.156;2023-01-24T11:09:53;24.30;;;10.25;;
4078;SDS011;2054;47.858;11.156;2023-01-24T11:12:20;20.27;;;9.68;;
4078;SDS011;2054;47.858;11.156;2023-01-24T11:14:48;26.30;;;11.02;;
4078;SDS011;2054;47.858;11.156;2023-01-24T11:17:32;24.20;;;10.85;;
4078;SDS011;2054;47.858;11.156;2023-01-24T11:20:00;24.55;;;12.05;;
4078;SDS011;2054;47.858;11.156;2023-01-24T11:22:28;25.77;;;11.43;;
4078;SDS011;2054;47.858;11.156;2023-01-24T11:25:00;24.55;;;11.50;;
4078;SDS011;2054;47.858;11.156;2023-01-24T11:27:28;23.38;;;10.63;;
4078;SDS011;2054;47.858;11.156;2023-01-24T11:30:10;23.48;;;10.77;;
4078;SDS011;2054;47.858;11.156;2023-01-24T11:32:44;24.15;;;11.70;;
4078;SDS011;2054;47.858;11.156;2023-01-24T11:35:12;24.67;;;11.57;;
4078;SDS011;2054;47.858;11.156;2023-01-24T11:38:05;25.13;;;11.10;;
4078;SDS011;2054;47.858;11.156;2023-01-24T11:40:38;27.10;;;10.90;;
4078;SDS011;2054;47.858;11.156;2023-01-24T11:43:12;21.80;;;10.65;;
4078;SDS011;2054;47.858;11.156;2023-01-24T11:48:30;21.17;;;11.13;;
4078;SDS011;2054;47.858;11.156;2023-01-24T11:51:03;23.63;;;10.52;;
4078;SDS011;2054;47.858;11.156;2023-01-24T11:53:38;20.48;;;9.73;;
4078;SDS011;2054;47.858;11.156;2023-01-24T11:56:11;18.27;;;8.82;;
4078;SDS011;2054;47.858;11.156;2023-01-24T11:58:48;23.75;;;9.35;;
4078;SDS011;2054;47.858;11.156;2023-01-24T12:01:20;18.65;;;8.68;;
4078;SDS011;2054;47.858;11.156;2023-01-24T12:06:35;20.92;;;8.52;;
4078;SDS011;2054;47.858;11.156;2023-01-24T12:09:09;19.17;;;8.63;;
4078;SDS011;2054;47.858;11.156;2023-01-24T12:11:41;20.38;;;7.55;;
4078;SDS011;2054;47.858;11.156;2023-01-24T12:14:15;16.30;;;7.53;;
4078;SDS011;2054;47.858;11.156;2023-01-24T12:16:51;16.70;;;7.95;;
4078;SDS011;2054;47.858;11.156;2023-01-24T12:19:29;16.95;;;8.50;;
4078;SDS011;2054;47.858;11.156;2023-01-24T12:22:01;19.58;;;7.85;;
4078;SDS011;2054;47.858;11.156;2023-01-24T12:24:30;18.85;;;7.90;;
4078;SDS011;2054;47.858;11.156;2023-01-24T12:26:58;20.33;;;9.00;;
4078;SDS011;2054;47.858;11.156;2023-01-24T12:29:27;19.35;;;8.52;;
4078;SDS011;2054;47.858;11.156;2023-01-24T12:31:56;14.77;;;7.97;;
4078;SDS011;2054;47.858;11.156;2023-01-24T12:34:31;14.52;;;6.63;;
4078;SDS011;2054;47.858;11.156;2023-01-24T12:37:01;12.63;;;5.90;;
4078;SDS011;2054;47.858;11.156;2023-01-24T12:39:33;14.48;;;6.93;;
4078;SDS011;2054;47.858;11.156;2023-01-24T12:42:04;17.40;;;7.82;;
4078;SDS011;2054;47.858;11.156;2023-01-24T12:44:37;12.85;;;6.78;;
4078;SDS011;2054;47.858;11.156;2023-01-24T12:47:11;14.82;;;6.03;;
4078;SDS011;2054;47.858;11.156;2023-01-24T12:49:44;15.25;;;6.90;;
4078;SDS011;2054;47.858;11.156;2023-01-24T12:52:17;16.17;;;6.63;;
4078;SDS011;2054;47.858;11.156;2023-01-24T12:54:47;14.25;;;6.57;;
4078;SDS011;2054;47.858;11.156;2023-01-24T12:57:18;16.08;;;8.20;;
4078;SDS011;2054;47.858;11.156;2023-01-24T12:59:47;14.75;;;6.78;;
4078;SDS011;2054;47.858;11.156;2023-01-24T13:05:11;11.85;;;6.15;;
4078;SDS011;2054;47.858;11.156;2023-01-24T13:07:43;13.75;;;7.00;;
4078;SDS011;2054;47.858;11.156;2023-01-24T13:10:16;14.77;;;6.82;;
4078;SDS011;2054;47.858;11.156;2023-01-24T13:12:45;14.68;;;7.03;;
4078;SDS011;2054;47.858;11.156;2023-01-24T13:15:14;15.00;;;7.18;;
4078;SDS011;2054;47.858;11.156;2023-01-24T13:17:58;15.18;;;7.18;;
4078;SDS011;2054;47.858;11.156;2023-01-24T13:20:34;16.60;;;7.03;;
4078;SDS011;2054;47.858;11.156;2023-01-24T13:23:16;15.68;;;7.50;;
4078;SDS011;2054;47.858;11.156;2023-01-24T13:25:57;15.55;;;7.47;;
4078;SDS011;2054;47.858;11.156;2023-01-24T13:28:30;14.52;;;6.90;;
4078;SDS011;2054;47.858;11.156;2023-01-24T13:31:03;14.85;;;7.00;;
4078;SDS011;2054;47.858;11.156;2023-01-24T13:33:36;15.50;;;7.45;;
4078;SDS011;2054;47.858;11.156;2023-01-24T13:36:05;15.57;;;7.03;;
4078;SDS011;2054;47.858;11.156;2023-01-24T13:38:37;17.20;;;7.55;;
4078;SDS011;2054;47.858;11.156;2023-01-24T13:41:06;12.95;;;6.28;;
4078;SDS011;2054;47.858;11.156;2023-01-24T13:46:16;11.60;;;5.85;;
4078;SDS011;2054;47.858;11.156;2023-01-24T13:48:45;12.80;;;5.82;;
4078;SDS011;2054;47.858;11.156;2023-01-24T13:51:27;11.38;;;5.90;;
4078;SDS011;2054;47.858;11.156;2023-01-24T13:53:58;16.90;;;6.82;;
4078;SDS011;2054;47.858;11.156;2023-01-24T13:56:25;13.98;;;6.65;;
4078;SDS011;2054;47.858;11.156;2023-01-24T13:58:52;13.93;;;7.13;;
4078;SDS011;2054;47.858;11.156;2023-01-24T14:01:20;13.45;;;6.97;;
4078;SDS011;2054;47.858;11.156;2023-01-24T14:03:52;12.85;;;6.35;;
4078;SDS011;2054;47.858;11.156;2023-01-24T14:06:19;13.45;;;6.57;;
4078;SDS011;2054;47.858;11.156;2023-01-24T14:08:49;15.73;;;6.40;;
4078;SDS011;2054;47.858;11.156;2023-01-24T14:11:33;13.77;;;6.47;;
4078;SDS011;2054;47.858;11.156;2023-01-24T14:14:02;13.35;;;6.68;;
4078;SDS011;2054;47.858;11.156;2023-01-24T14:16:55;13.73;;;6.85;;
4078;SDS011;2054;47.858;11.156;2023-01-24T14:19:24;14.52;;;6.32;;
4078;SDS011;2054;47.858;11.156;2023-01-24T14:21:54;13.52;;;6.85;;
4078;SDS011;2054;47.858;11.156;2023-01-24T14:24:24;15.25;;;6.60;;
4078;SDS011;2054;47.858;11.156;2023-01-24T14:26:55;14.20;;;6.65;;
4078;SDS011;2054;47.858;11.156;2023-01-24T14:29:25;13.32;;;6.00;;
4078;SDS011;2054;47.858;11.156;2023-01-24T14:31:54;11.43;;;6.05;;
4078;SDS011;2054;47.858;11.156;2023-01-24T14:34:26;10.73;;;5.55;;
4078;SDS011;2054;47.858;11.156;2023-01-24T14:36:57;9.45;;;5.03;;
4078;SDS011;2054;47.858;11.156;2023-01-24T14:39:27;14.77;;;6.13;;
4078;SDS011;2054;47.858;11.156;2023-01-24T14:41:56;10.88;;;5.43;;
4078;SDS011;2054;47.858;11.156;2023-01-24T14:44:23;12.75;;;5.85;;
4078;SDS011;2054;47.858;11.156;2023-01-24T14:46:52;11.85;;;6.15;;
4078;SDS011;2054;47.858;11.156;2023-01-24T14:49:24;10.55;;;5.32;;
4078;SDS011;2054;47.858;11.156;2023-01-24T14:51:51;14.45;;;6.45;;
4078;SDS011;2054;47.858;11.156;2023-01-24T14:54:20;13.48;;;6.90;;
4078;SDS011;2054;47.858;11.156;2023-01-24T14:56:47;12.70;;;6.00;;
4078;SDS011;2054;47.858;11.156;2023-01-24T14:59:17;13.93;;;6.90;;
4078;SDS011;2054;47.858;11.156;2023-01-24T15:01:44;13.07;;;7.00;;
4078;SDS011;2054;47.858;11.156;2023-01-24T15:04:25;13.95;;;7.13;;
4078;SDS011;2054;47.858;11.156;2023-01-24T15:07:06;13.95;;;6.60;;
4078;SDS011;2054;47.858;11.156;2023-01-24T15:09:33;12.93;;;6.65;;
4078;SDS011;2054;47.858;11.156;2023-01-24T15:12:13;15.48;;;6.63;;
4078;SDS011;2054;47.858;11.156;2023-01-24T15:14:46;15.80;;;7.45;;
4078;SDS011;2054;47.858;11.156;2023-01-24T15:17:16;35.15;;;16.25;;
4078;SDS011;2054;47.858;11.156;2023-01-24T15:19:47;18.88;;;9.38;;
4078;SDS011;2054;47.858;11.156;2023-01-24T15:22:18;41.30;;;17.35;;
4078;SDS011;2054;47.858;11.156;2023-01-24T15:24:50;49.38;;;20.23;;
4078;SDS011;2054;47.858;11.156;2023-01-24T15:27:32;23.42;;;11.63;;
4078;SDS011;2054;47.858;11.156;2023-01-24T15:32:48;17.17;;;7.70;;
4078;SDS011;2054;47.858;11.156;2023-01-24T15:35:23;15.45;;;7.65;;
4078;SDS011;2054;47.858;11.156;2023-01-24T15:40:52;15.27;;;7.15;;
4078;SDS011;2054;47.858;11.156;2023-01-24T15:43:21;12.77;;;6.13;;
4078;SDS011;2054;47.858;11.156;2023-01-24T15:46:06;14.18;;;6.20;;
4078;SDS011;2054;47.858;11.156;2023-01-24T15:48:57;13.05;;;6.68;;
4078;SDS011;2054;47.858;11.156;2023-01-24T15:51:28;14.07;;;6.93;;
4078;SDS011;2054;47.858;11.156;2023-01-24T15:53:57;15.45;;;6.47;;
4078;SDS011;2054;47.858;11.156;2023-01-24T15:56:24;14.02;;;7.88;;
4078;SDS011;2054;47.858;11.156;2023-01-24T15:58:52;14.93;;;7.93;;
4078;SDS011;2054;47.858;11.156;2023-01-24T16:01:19;15.60;;;7.70;;
4078;SDS011;2054;47.858;11.156;2023-01-24T16:03:47;14.07;;;6.55;;
4078;SDS011;2054;47.858;11.156;2023-01-24T16:06:15;13.63;;;7.20;;
4078;SDS011;2054;47.858;11.156;2023-01-24T16:08:43;12.75;;;6.28;;
4078;SDS011;2054;47.858;11.156;2023-01-24T16:11:10;14.00;;;6.53;;
4078;SDS011;2054;47.858;11.156;2023-01-24T16:13:38;12.40;;;6.32;;
4078;SDS011;2054;47.858;11.156;2023-01-24T16:16:06;15.95;;;7.35;;
4078;SDS011;2054;47.858;11.156;2023-01-24T16:18:34;15.45;;;7.38;;
4078;SDS011;2054;47.858;11.156;2023-01-24T16:21:02;13.48;;;6.50;;
4078;SDS011;2054;47.858;11.156;2023-01-24T16:23:30;14.52;;;6.78;;
4078;SDS011;2054;47.858;11.156;2023-01-24T16:25:58;15.75;;;6.50;;
4078;SDS011;2054;47.858;11.156;2023-01-24T16:28:25;14.52;;;6.40;;
4078;SDS011;2054;47.858;11.156;2023-01-24T16:30:54;19.83;;;7.85;;
4078;SDS011;2054;47.858;11.156;2023-01-24T16:33:25;16.10;;;6.60;;
4078;SDS011;2054;47.858;11.156;2023-01-24T16:35:53;15.50;;;6.30;;
4078;SDS011;2054;47.858;11.156;2023-01-24T16:38:20;13.65;;;6.57;;
4078;SDS011;2054;47.858;11.156;2023-01-24T16:40:49;14.75;;;6.80;;
4078;SDS011;2054;47.858;11.156;2023-01-24T16:43:17;15.82;;;7.03;;
4078;SDS011;2054;47.858;11.156;2023-01-24T16:45:45;13.90;;;6.78;;
4078;SDS011;2054;47.858;11.156;2023-01-24T16:48:13;10.35;;;5.63;;
4078;SDS011;2054;47.858;11.156;2023-01-24T16:50:40;15.50;;;6.53;;
4078;SDS011;2054;47.858;11.156;2023-01-24T16:53:08;13.77;;;5.82;;
4078;SDS011;2054;47.858;11.156;2023-01-24T16:55:36;13.57;;;6.60;;
4078;SDS011;2054;47.858;11.156;2023-01-24T16:58:10;13.57;;;5.88;;
4078;SDS011;2054;47.858;11.156;2023-01-24T17:00:38;12.07;;;5.80;;
4078;SDS011;2054;47.858;11.156;2023-01-24T17:03:05;11.45;;;6.10;;
4078;SDS011;2054;47.858;11.156;2023-01-24T17:05:32;16.42;;;6.65;;
4078;SDS011;2054;47.858;11.156;2023-01-24T17:07:59;13.23;;;6.30;;
4078;SDS011;2054;47.858;11.156;2023-01-24T17:10:27;12.98;;;5.85;;
4078;SDS011;2054;47.858;11.156;2023-01-24T17:12:55;14.73;;;7.05;;
4078;SDS011;2054;47.858;11.156;2023-01-24T17:15:24;13.60;;;6.15;;
4078;SDS011;2054;47.858;11.156;2023-01-24T17:17:52;11.88;;;5.72;;
4078;SDS011;2054;47.858;11.156;2023-01-24T17:20:19;13.57;;;5.95;;
4078;SDS011;2054;47.858;11.156;2023-01-24T17:22:46;12.45;;;5.72;;
4078;SDS011;2054;47.858;11.156;2023-01-24T17:25:13;16.35;;;7.32;;
4078;SDS011;2054;47.858;11.156;2023-01-24T17:27:42;13.85;;;6.53;;
4078;SDS011;2054;47.858;11.156;2023-01-24T17:30:10;13.30;;;6.05;;
4078;SDS011;2054;47.858;11.156;2023-01-24T17:32:38;13.25;;;5.90;;
4078;SDS011;2054;47.858;11.156;2023-01-24T17:35:07;16.27;;;7.47;;
4078;SDS011;2054;47.858;11.156;2023-01-24T17:37:35;18.35;;;7.22;;
4078;SDS011;2054;47.858;11.156;2023-01-24T17:40:03;16.33;;;7.10;;
4078;SDS011;2054;47.858;11.156;2023-01-24T17:42:30;14.73;;;6.28;;
4078;SDS011;2054;47.858;11.156;2023-01-24T17:44:57;14.32;;;6.47;;
4078;SDS011;2054;47.858;11.156;2023-01-24T17:47:26;13.43;;;5.45;;
4078;SDS011;2054;47.858;11.156;2023-01-24T17:49:54;13.82;;;6.97;;
4078;SDS011;2054;47.858;11.156;2023-01-24T17:52:21;15.15;;;7.10;;
4078;SDS011;2054;47.858;11.156;2023-01-24T17:54:49;13.82;;;7.35;;
4078;SDS011;2054;47.858;11.156;2023-01-24T17:57:16;17.00;;;7.43;;
4078;SDS011;2054;47.858;11.156;2023-01-24T17:59:43;18.13;;;8.50;;
4078;SDS011;2054;47.858;11.156;2023-01-24T18:02:10;14.48;;;6.40;;
4078;SDS011;2054;47.858;11.156;2023-01-24T18:04:37;19.33;;;8.02;;
4078;SDS011;2054;47.858;11.156;2023-01-24T18:07:06;19.88;;;8.50;;
4078;SDS011;2054;47.858;11.156;2023-01-24T18:09:33;19.00;;;8.38;;
4078;SDS011;2054;47.858;11.156;2023-01-24T18:12:00;17.58;;;7.65;;
4078;SDS011;2054;47.858;11.156;2023-01-24T18:14:27;24.95;;;10.20;;
4078;SDS011;2054;47.858;11.156;2023-01-24T18:16:55;15.65;;;7.72;;
4078;SDS011;2054;47.858;11.156;2023-01-24T18:19:22;14.32;;;7.10;;
4078;SDS011;2054;47.858;11.156;2023-01-24T18:21:49;13.93;;;6.53;;
4078;SDS011;2054;47.858;11.156;2023-01-24T18:24:18;12.60;;;6.22;;
4078;SDS011;2054;47.858;11.156;2023-01-24T18:26:45;14.88;;;6.95;;
4078;SDS011;2054;47.858;11.156;2023-01-24T18:29:12;13.15;;;6.95;;
4078;SDS011;2054;47.858;11.156;2023-01-24T18:31:39;13.98;;;6.93;;
4078;SDS011;2054;47.858;11.156;2023-01-24T18:34:08;15.75;;;6.68;;
4078;SDS011;2054;47.858;11.156;2023-01-24T18:36:36;15.38;;;6.68;;
4078;SDS011;2054;47.858;11.156;2023-01-24T18:39:03;15.68;;;7.32;;
4078;SDS011;2054;47.858;11.156;2023-01-24T18:41:32;14.35;;;7.07;;
4078;SDS011;2054;47.858;11.156;2023-01-24T18:43:59;15.88;;;7.30;;
4078;SDS011;2054;47.858;11.156;2023-01-24T18:46:28;14.93;;;6.82;;
4078;SDS011;2054;47.858;11.156;2023-01-24T18:48:55;15.82;;;6.78;;
4078;SDS011;2054;47.858;11.156;2023-01-24T18:51:22;13.80;;;6.82;;
4078;SDS011;2054;47.858;11.156;2023-01-24T18:53:50;12.55;;;6.78;;
4078;SDS011;2054;47.858;11.156;2023-01-24T18:56:18;15.20;;;6.78;;
4078;SDS011;2054;47.858;11.156;2023-01-24T18:58:47;14.65;;;6.32;;
4078;SDS011;2054;47.858;11.156;2023-01-24T19:01:15;13.63;;;6.78;;
4078;SDS011;2054;47.858;11.156;2023-01-24T19:03:43;12.65;;;6.13;;
4078;SDS011;2054;47.858;11.156;2023-01-24T19:06:11;13.27;;;6.53;;